Time;durP1;ratioP1;P1;durP2;ratioP2;P2;SDS_P1;SDS_P2;PMS_P1;PMS_P2;Temp;Humidity;BMP_temperature;BMP_pressure;BME280_temperature;BME280_humidity;BME280_pressure;Samples;Min_cycle;Max_cycle;Signal;HPM_P1;HPM_P2
2021/01/23 00:00:21;;;;;;;23.77;14.63;;;1.80;95.80;;;;;;4407878;32;20223;-66
2021/01/23 00:02:47;;;;;;;25.43;14.80;;;1.80;95.80;;;;;;4406194;32;20163;-64
2021/01/23 00:05:14;;;;;;;23.03;13.87;;;1.70;95.70;;;;;;4401122;32;20160;-65
2021/01/23 00:07:41;;;;;;;24.10;14.30;;;1.70;95.70;;;;;;4395382;32;20168;-66
2021/01/23 00:10:08;;;;;;;23.47;14.57;;;1.70;95.70;;;;;;4404042;32;20294;-64
2021/01/23 00:12:34;;;;;;;29.23;15.07;;;1.70;95.70;;;;;;4403730;32;20226;-64
2021/01/23 00:15:01;;;;;;;27.37;14.00;;;1.70;95.80;;;;;;4399304;32;20195;-64
2021/01/23 00:17:27;;;;;;;23.53;14.20;;;1.70;95.70;;;;;;4393685;32;20549;-65
2021/01/23 00:19:53;;;;;;;25.60;15.20;;;1.70;95.80;;;;;;4404689;32;20166;-66
2021/01/23 00:22:20;;;;;;;26.93;14.57;;;1.70;95.80;;;;;;4398378;32;20212;-63
2021/01/23 00:24:47;;;;;;;23.17;14.03;;;1.70;95.70;;;;;;4396345;32;20170;-65
2021/01/23 00:27:13;;;;;;;29.50;15.20;;;1.70;95.80;;;;;;4406395;32;20226;-65
2021/01/23 00:29:40;;;;;;;29.37;15.40;;;1.60;95.80;;;;;;4405634;32;20491;-66
2021/01/23 00:32:06;;;;;;;22.30;13.87;;;1.70;95.80;;;;;;4406726;32;20175;-63
2021/01/23 00:34:32;;;;;;;20.77;14.30;;;1.70;95.80;;;;;;4399128;32;20170;-65
2021/01/23 00:36:58;;;;;;;24.33;15.60;;;1.70;95.70;;;;;;4398549;32;20157;-64
2021/01/23 00:39:25;;;;;;;25.37;14.83;;;1.70;95.70;;;;;;4405355;32;20404;-63
2021/01/23 00:41:52;;;;;;;27.53;15.73;;;1.60;95.70;;;;;;4405469;32;20257;-65
2021/01/23 00:44:18;;;;;;;22.63;15.70;;;1.70;95.80;;;;;;4401181;32;20200;-66
2021/01/23 00:46:44;;;;;;;24.63;14.33;;;1.60;95.70;;;;;;4396454;32;20172;-62
2021/01/23 00:49:11;;;;;;;25.07;15.30;;;1.60;95.70;;;;;;4396426;32;20224;-63
2021/01/23 00:51:37;;;;;;;28.83;16.47;;;1.60;95.70;;;;;;4398253;32;20664;-64
2021/01/23 00:54:04;;;;;;;26.60;15.80;;;1.50;95.60;;;;;;4391498;32;20302;-65
2021/01/23 00:56:30;;;;;;;27.17;15.23;;;1.50;95.70;;;;;;4405441;32;20563;-66
2021/01/23 00:58:57;;;;;;;26.43;15.37;;;1.60;95.80;;;;;;4400223;32;20176;-66
2021/01/23 01:01:23;;;;;;;26.87;15.40;;;1.60;95.80;;;;;;4401330;32;20156;-68
2021/01/23 01:03:50;;;;;;;20.67;13.60;;;1.60;95.80;;;;;;4396095;32;20206;-64
2021/01/23 01:06:16;;;;;;;26.87;14.40;;;1.50;95.70;;;;;;4396472;32;20556;-64
2021/01/23 01:08:42;;;;;;;22.13;14.43;;;1.50;95.80;;;;;;4394243;32;20168;-65
2021/01/23 01:11:08;;;;;;;20.30;13.47;;;1.50;95.70;;;;;;4398353;32;20169;-63
2021/01/23 01:13:35;;;;;;;27.93;14.03;;;1.50;95.80;;;;;;4400373;32;20669;-64
2021/01/23 01:16:02;;;;;;;23.50;13.97;;;1.50;95.80;;;;;;4396496;32;20645;-63
2021/01/23 01:18:28;;;;;;;23.00;13.33;;;1.60;95.90;;;;;;4390533;32;20227;-64
2021/01/23 01:20:54;;;;;;;22.77;13.93;;;1.60;95.80;;;;;;4390787;32;20215;-64
2021/01/23 01:23:21;;;;;;;28.60;14.87;;;1.60;95.80;;;;;;4395514;32;20318;-63
2021/01/23 01:25:47;;;;;;;22.23;13.73;;;1.60;95.80;;;;;;4395572;32;20233;-63
2021/01/23 01:28:13;;;;;;;29.10;14.13;;;1.60;95.70;;;;;;4390333;32;20156;-63
2021/01/23 01:30:40;;;;;;;21.57;13.27;;;1.60;95.80;;;;;;4397000;32;20144;-63
2021/01/23 01:33:09;;;;;;;21.93;14.50;;;1.50;95.70;;;;;;4392600;32;20160;-63
2021/01/23 01:35:36;;;;;;;25.90;14.23;;;1.60;95.80;;;;;;4399474;32;20160;-64
2021/01/23 01:38:02;;;;;;;25.20;13.90;;;1.60;95.80;;;;;;4393379;32;20240;-63
2021/01/23 01:40:28;;;;;;;23.80;13.63;;;1.60;95.80;;;;;;4398142;32;20219;-64
2021/01/23 01:42:56;;;;;;;24.00;13.77;;;1.60;95.80;;;;;;4397424;32;20148;-64
2021/01/23 01:45:23;;;;;;;21.73;13.50;;;1.50;95.70;;;;;;4400401;32;20216;-64
2021/01/23 01:47:49;;;;;;;24.10;13.37;;;1.50;95.80;;;;;;4394912;32;20245;-64
2021/01/23 01:50:17;;;;;;;24.07;14.97;;;1.60;95.90;;;;;;4405311;32;20158;-64
2021/01/23 01:52:43;;;;;;;25.00;15.67;;;1.60;96.00;;;;;;4390441;32;20219;-63
2021/01/23 01:55:11;;;;;;;26.77;14.47;;;1.70;96.50;;;;;;4392612;32;20231;-63
2021/01/23 01:57:38;;;;;;;20.47;14.13;;;1.80;96.60;;;;;;4390125;32;20167;-63
2021/01/23 02:00:05;;;;;;;23.47;14.07;;;1.90;96.80;;;;;;4394033;32;20597;-64
2021/01/23 02:03:00;;;;;;;28.90;15.50;;;2.00;96.80;;;;;;4396507;32;20187;-63
2021/01/23 02:05:37;;;;;;;21.50;14.20;;;2.10;96.70;;;;;;4394385;32;20155;-63
2021/01/23 02:08:12;;;;;;;25.00;14.83;;;2.10;96.50;;;;;;4398596;32;20147;-63
2021/01/23 02:10:45;;;;;;;21.90;13.03;;;2.10;96.50;;;;;;4406031;32;20143;-63
2021/01/23 02:13:20;;;;;;;23.57;14.17;;;2.20;96.60;;;;;;4404116;32;20274;-65
2021/01/23 02:15:48;;;;;;;26.83;15.13;;;2.30;96.80;;;;;;4403644;32;20242;-63
2021/01/23 02:18:17;;;;;;;21.17;13.80;;;2.30;96.70;;;;;;4405063;32;20148;-63
2021/01/23 02:21:19;;;;;;;24.50;13.50;;;2.40;96.50;;;;;;4396159;32;20181;-65
2021/01/23 02:23:48;;;;;;;21.80;13.60;;;2.40;96.50;;;;;;4325870;33;20657;-63
2021/01/23 02:26:19;;;;;;;23.23;13.73;;;2.40;96.40;;;;;;4327746;33;20187;-63
2021/01/23 02:28:57;;;;;;;23.00;13.70;;;2.40;96.40;;;;;;4329713;33;20492;-63
2021/01/23 02:31:29;;;;;;;22.90;13.20;;;2.40;96.50;;;;;;4328950;33;20244;-62
2021/01/23 02:33:59;;;;;;;24.43;13.97;;;2.50;96.50;;;;;;4323034;33;20235;-65
2021/01/23 02:36:27;;;;;;;20.40;13.90;;;2.50;96.50;;;;;;4329041;33;20150;-64
2021/01/23 02:38:54;;;;;;;23.67;14.10;;;2.60;96.60;;;;;;4326978;33;20170;-63
2021/01/23 02:41:22;;;;;;;18.30;13.10;;;2.70;96.60;;;;;;4327130;33;20531;-63
2021/01/23 02:43:48;;;;;;;20.90;13.47;;;2.70;96.50;;;;;;4336267;33;20176;-63
2021/01/23 02:46:16;;;;;;;22.57;13.27;;;2.70;96.50;;;;;;4327175;33;20252;-63
2021/01/23 02:48:43;;;;;;;29.23;14.30;;;2.80;96.40;;;;;;4330462;33;20240;-63
2021/01/23 02:51:18;;;;;;;23.83;13.67;;;2.80;96.40;;;;;;4333327;33;20157;-65
2021/01/23 02:53:48;;;;;;;21.03;13.80;;;2.80;96.50;;;;;;4329236;33;20346;-65
2021/01/23 02:56:18;;;;;;;18.10;13.10;;;2.80;96.20;;;;;;4330289;33;20224;-64
2021/01/23 02:58:46;;;;;;;22.90;14.63;;;2.80;96.20;;;;;;4329635;33;20173;-64
2021/01/23 03:01:14;;;;;;;19.87;14.13;;;2.80;96.10;;;;;;4378392;32;20199;-64
2021/01/23 03:03:43;;;;;;;24.87;15.00;;;2.80;96.30;;;;;;4396678;32;20227;-64
2021/01/23 03:06:09;;;;;;;23.83;15.10;;;2.90;96.30;;;;;;4393326;32;20262;-63
2021/01/23 03:08:43;;;;;;;23.73;14.67;;;2.90;96.20;;;;;;4404495;32;20262;-65
2021/01/23 03:11:09;;;;;;;21.17;13.87;;;2.90;96.10;;;;;;4396459;32;20227;-63
2021/01/23 03:13:36;;;;;;;26.80;15.40;;;2.90;96.30;;;;;;4400783;32;20223;-63
2021/01/23 03:16:02;;;;;;;22.10;13.67;;;2.90;96.10;;;;;;4398084;32;20164;-64
2021/01/23 03:18:29;;;;;;;21.80;14.13;;;3.00;96.10;;;;;;4400381;32;20194;-63
2021/01/23 03:20:56;;;;;;;21.57;14.37;;;3.00;96.00;;;;;;4393854;32;20144;-64
2021/01/23 03:23:22;;;;;;;22.57;13.97;;;3.00;96.30;;;;;;4396729;32;20215;-63
2021/01/23 03:25:48;;;;;;;23.97;15.13;;;3.00;95.80;;;;;;4403590;32;20242;-64
2021/01/23 03:28:15;;;;;;;24.50;14.60;;;2.80;95.90;;;;;;4393786;32;20149;-64
2021/01/23 03:30:42;;;;;;;23.53;13.83;;;2.80;96.10;;;;;;4401785;32;20394;-64
2021/01/23 03:33:09;;;;;;;21.80;14.47;;;2.90;96.40;;;;;;4398730;32;20168;-63
2021/01/23 03:35:35;;;;;;;24.53;14.97;;;2.90;96.40;;;;;;4395362;32;20160;-63
2021/01/23 03:38:02;;;;;;;21.93;14.40;;;2.90;96.20;;;;;;4392165;32;20255;-63
2021/01/23 03:40:29;;;;;;;26.57;14.70;;;2.90;96.10;;;;;;4402180;32;20208;-63
2021/01/23 03:42:55;;;;;;;22.77;15.20;;;2.80;96.10;;;;;;4397262;32;20180;-63
2021/01/23 03:45:21;;;;;;;21.03;14.40;;;2.80;96.00;;;;;;4401608;32;20278;-63
2021/01/23 03:47:47;;;;;;;27.37;14.07;;;2.80;96.00;;;;;;4396124;32;20178;-65
2021/01/23 03:50:14;;;;;;;20.50;13.90;;;2.80;96.10;;;;;;4405032;32;20147;-65
2021/01/23 03:52:40;;;;;;;25.37;15.07;;;2.90;96.10;;;;;;4392506;32;20186;-63
2021/01/23 03:55:09;;;;;;;24.57;15.67;;;2.90;96.20;;;;;;4399957;32;20651;-63
2021/01/23 03:57:35;;;;;;;25.37;15.43;;;2.90;96.20;;;;;;4393271;32;20170;-63
2021/01/23 04:00:03;;;;;;;26.13;15.03;;;3.00;96.20;;;;;;4398516;32;20261;-63
2021/01/23 04:02:30;;;;;;;25.40;15.80;;;3.10;96.20;;;;;;4395107;32;20219;-63
2021/01/23 04:04:56;;;;;;;19.53;14.50;;;3.00;96.00;;;;;;4397337;32;20258;-63
2021/01/23 04:07:22;;;;;;;26.07;15.10;;;3.00;95.90;;;;;;4398690;32;20147;-63
2021/01/23 04:09:48;;;;;;;21.30;15.60;;;2.90;95.80;;;;;;4404924;32;20227;-63
2021/01/23 04:12:16;;;;;;;23.27;14.50;;;2.90;95.80;;;;;;4405416;32;20206;-63
2021/01/23 04:14:42;;;;;;;21.97;14.27;;;2.80;95.70;;;;;;4403045;32;20220;-63
2021/01/23 04:17:09;;;;;;;24.00;15.93;;;2.80;95.80;;;;;;4406069;32;20175;-63
2021/01/23 04:19:35;;;;;;;24.30;16.47;;;2.80;96.00;;;;;;4399734;32;20215;-63
2021/01/23 04:22:01;;;;;;;27.57;16.47;;;2.80;96.10;;;;;;4407029;32;20251;-63
2021/01/23 04:24:28;;;;;;;23.47;16.07;;;2.80;96.00;;;;;;4405977;32;20597;-63
2021/01/23 04:26:54;;;;;;;29.47;16.23;;;2.90;96.30;;;;;;4401234;32;20219;-63
2021/01/23 04:29:21;;;;;;;30.13;16.53;;;3.00;96.20;;;;;;4400919;32;20215;-63
2021/01/23 04:31:47;;;;;;;26.53;15.60;;;3.00;95.90;;;;;;4406503;32;20651;-64
2021/01/23 04:34:13;;;;;;;24.00;16.33;;;2.90;96.00;;;;;;4405884;32;20191;-63
2021/01/23 04:36:40;;;;;;;27.10;15.43;;;3.00;96.00;;;;;;4397453;32;20222;-64
2021/01/23 04:39:06;;;;;;;22.20;16.43;;;3.00;95.90;;;;;;4398115;32;20171;-64
2021/01/23 04:41:32;;;;;;;21.77;15.20;;;3.00;95.70;;;;;;4405919;32;20235;-64
2021/01/23 04:43:59;;;;;;;24.53;15.90;;;2.90;95.60;;;;;;4407499;32;20224;-63
2021/01/23 04:46:26;;;;;;;22.47;15.53;;;2.80;95.60;;;;;;4401148;32;20144;-63
2021/01/23 04:48:52;;;;;;;23.53;15.97;;;2.70;95.70;;;;;;4397538;32;20238;-63
2021/01/23 04:51:19;;;;;;;23.90;15.23;;;2.70;95.70;;;;;;4405592;32;20240;-63
2021/01/23 04:53:46;;;;;;;27.90;15.70;;;2.60;95.70;;;;;;4404344;32;20144;-63
2021/01/23 04:56:13;;;;;;;25.97;16.17;;;2.60;95.90;;;;;;4406077;32;20144;-63
2021/01/23 04:58:39;;;;;;;26.03;16.37;;;2.60;96.00;;;;;;4405551;32;20542;-65
2021/01/23 05:01:05;;;;;;;30.53;15.97;;;2.60;96.00;;;;;;4405302;32;20235;-63
2021/01/23 05:03:53;;;;;;;23.27;15.27;;;2.70;96.10;;;;;;4399407;32;20351;-63
2021/01/23 05:06:19;;;;;;;22.20;15.07;;;2.60;96.00;;;;;;4397823;32;20231;-64
2021/01/23 05:08:46;;;;;;;26.80;15.27;;;2.60;96.00;;;;;;4401175;32;20292;-62
2021/01/23 05:11:12;;;;;;;27.20;17.17;;;2.60;96.00;;;;;;4400370;32;20287;-64
2021/01/23 05:13:38;;;;;;;25.27;15.40;;;2.50;96.00;;;;;;4393018;32;20211;-63
2021/01/23 05:16:24;;;;;;;26.20;15.67;;;2.60;96.20;;;;;;4404645;32;20242;-63
2021/01/23 05:18:56;;;;;;;21.23;14.27;;;2.60;96.40;;;;;;4395164;32;20218;-63
2021/01/23 05:21:23;;;;;;;21.27;13.77;;;2.70;96.50;;;;;;4395291;32;20261;-63
2021/01/23 05:24:02;;;;;;;23.50;14.20;;;2.80;96.40;;;;;;4405454;32;20209;-62
2021/01/23 05:26:32;;;;;;;21.93;14.40;;;2.90;96.30;;;;;;4406286;32;20552;-62
2021/01/23 05:29:13;;;;;;;22.47;14.57;;;2.90;96.40;;;;;;4404926;32;20276;-62
2021/01/23 05:31:40;;;;;;;24.80;14.67;;;3.00;96.40;;;;;;4405663;32;20555;-63
2021/01/23 05:34:29;;;;;;;25.07;15.10;;;3.00;96.40;;;;;;4404572;32;20220;-63
2021/01/23 05:36:57;;;;;;;21.73;15.00;;;3.10;96.20;;;;;;4405088;32;20211;-62
2021/01/23 05:39:48;;;;;;;28.17;14.23;;;3.10;96.10;;;;;;4400945;32;20466;-63
2021/01/23 05:42:15;;;;;;;33.73;13.93;;;3.20;95.90;;;;;;4393373;32;20151;-63
2021/01/23 05:44:41;;;;;;;18.13;13.87;;;3.30;95.80;;;;;;4400618;32;20632;-64
2021/01/23 05:47:26;;;;;;;19.87;12.80;;;3.30;95.60;;;;;;4399871;32;20169;-65
2021/01/23 05:49:54;;;;;;;24.23;13.23;;;3.30;95.30;;;;;;4398248;32;20170;-63
2021/01/23 05:52:21;;;;;;;24.43;13.57;;;3.20;95.30;;;;;;4398674;32;20155;-63
2021/01/23 05:54:47;;;;;;;21.30;12.60;;;3.20;95.40;;;;;;4401679;32;20179;-65
2021/01/23 05:57:14;;;;;;;23.37;13.87;;;3.20;95.50;;;;;;4402388;32;20223;-63
2021/01/23 05:59:41;;;;;;;23.27;14.97;;;3.30;95.50;;;;;;4391241;32;20166;-63
2021/01/23 06:02:09;;;;;;;18.30;12.80;;;3.30;95.40;;;;;;4391614;32;20282;-63
2021/01/23 06:04:37;;;;;;;19.23;12.77;;;3.40;95.30;;;;;;4403631;32;20152;-63
2021/01/23 06:07:04;;;;;;;23.37;13.90;;;3.40;95.20;;;;;;4405709;32;20155;-63
2021/01/23 06:09:37;;;;;;;21.03;12.60;;;3.30;95.20;;;;;;4407102;32;20164;-64
2021/01/23 06:12:05;;;;;;;21.67;13.03;;;3.30;95.20;;;;;;4407139;32;20152;-63
2021/01/23 06:14:39;;;;;;;20.13;12.60;;;3.30;95.30;;;;;;4395442;32;20184;-63
2021/01/23 06:17:06;;;;;;;21.43;13.23;;;3.30;95.40;;;;;;4398396;32;20239;-63
2021/01/23 06:19:42;;;;;;;24.93;13.53;;;3.30;95.30;;;;;;4407666;32;20178;-63
2021/01/23 06:22:11;;;;;;;22.83;13.33;;;3.30;95.30;;;;;;4407589;32;20159;-62
2021/01/23 06:24:56;;;;;;;20.83;12.43;;;3.30;95.40;;;;;;4407240;32;20151;-63
2021/01/23 06:27:44;;;;;;;19.87;12.87;;;3.30;95.30;;;;;;4402875;32;20137;-63
2021/01/23 06:30:29;;;;;;;22.97;13.10;;;3.40;95.40;;;;;;4407145;32;20205;-63
2021/01/23 06:32:56;;;;;;;21.63;12.33;;;3.40;95.40;;;;;;4399517;32;20476;-63
2021/01/23 06:35:23;;;;;;;20.50;12.03;;;3.40;95.30;;;;;;4396767;32;20219;-64
2021/01/23 06:37:50;;;;;;;17.17;11.77;;;3.40;95.20;;;;;;4396644;32;20164;-63
2021/01/23 06:40:21;;;;;;;19.00;12.17;;;3.50;95.30;;;;;;4402495;32;20262;-63
2021/01/23 06:42:49;;;;;;;19.57;11.60;;;3.50;95.20;;;;;;4407488;32;20249;-62
2021/01/23 06:45:22;;;;;;;19.03;12.07;;;3.60;95.20;;;;;;4407188;32;20175;-63
2021/01/23 06:47:50;;;;;;;18.57;11.07;;;3.60;95.10;;;;;;4403696;32;20168;-63
2021/01/23 06:50:31;;;;;;;16.87;11.67;;;3.70;95.10;;;;;;4398925;32;20219;-63
2021/01/23 06:52:59;;;;;;;15.70;11.50;;;3.70;95.00;;;;;;4403058;32;20159;-63
2021/01/23 06:55:47;;;;;;;21.17;11.17;;;3.70;94.90;;;;;;4407279;32;20157;-64
2021/01/23 06:58:19;;;;;;;18.07;11.33;;;3.80;94.90;;;;;;4407372;32;20524;-63
2021/01/23 07:00:46;;;;;;;21.70;11.60;;;3.80;94.80;;;;;;4399334;32;20168;-64
2021/01/23 07:03:13;;;;;;;17.47;11.27;;;3.80;94.70;;;;;;4401095;32;20147;-64
2021/01/23 07:05:51;;;;;;;17.87;11.13;;;3.90;94.60;;;;;;4406831;32;20223;-64
2021/01/23 07:08:24;;;;;;;18.27;11.97;;;3.80;94.50;;;;;;4406825;32;20144;-64
2021/01/23 07:11:13;;;;;;;19.30;11.30;;;3.80;94.60;;;;;;4394591;32;20179;-64
2021/01/23 07:13:55;;;;;;;19.43;12.03;;;3.90;94.50;;;;;;4406214;32;20227;-64
2021/01/23 07:16:21;;;;;;;23.53;13.10;;;3.90;94.40;;;;;;4406023;32;20203;-63
2021/01/23 07:18:52;;;;;;;20.80;12.90;;;4.00;94.40;;;;;;4404998;32;20165;-64
2021/01/23 07:21:19;;;;;;;19.10;11.93;;;4.00;94.30;;;;;;4391759;32;20183;-64
2021/01/23 07:23:47;;;;;;;22.07;13.57;;;4.00;94.30;;;;;;4407267;32;20599;-64
2021/01/23 07:26:14;;;;;;;27.97;14.63;;;4.00;94.30;;;;;;4404696;32;20166;-65
2021/01/23 07:28:44;;;;;;;22.03;13.67;;;4.00;94.10;;;;;;4402296;32;20529;-65
2021/01/23 07:31:18;;;;;;;17.90;12.97;;;4.10;94.10;;;;;;4400582;32;20186;-66
2021/01/23 07:33:44;;;;;;;22.57;13.40;;;4.10;94.10;;;;;;4403826;32;20537;-66
2021/01/23 07:36:11;;;;;;;18.83;13.23;;;4.10;94.10;;;;;;4404237;32;20238;-63
2021/01/23 07:38:37;;;;;;;18.63;12.23;;;4.10;94.10;;;;;;4402621;32;20144;-66
2021/01/23 07:41:06;;;;;;;17.30;11.80;;;4.10;94.00;;;;;;4404430;32;20148;-65
2021/01/23 07:43:32;;;;;;;16.00;12.17;;;4.10;93.90;;;;;;4403772;32;20197;-64
2021/01/23 07:45:58;;;;;;;15.23;12.13;;;4.00;93.90;;;;;;4405745;32;20233;-64
2021/01/23 07:48:25;;;;;;;17.17;12.73;;;3.90;94.10;;;;;;4401887;32;20288;-65
2021/01/23 07:50:51;;;;;;;17.87;12.03;;;3.90;94.30;;;;;;4405038;32;20226;-65
2021/01/23 07:53:20;;;;;;;15.73;11.60;;;4.00;94.30;;;;;;4401010;32;20221;-64
2021/01/23 07:55:47;;;;;;;18.03;11.83;;;4.00;94.10;;;;;;4405869;32;20170;-63
2021/01/23 07:58:15;;;;;;;17.27;11.23;;;3.90;94.10;;;;;;4403799;32;20182;-66
2021/01/23 08:00:42;;;;;;;19.10;11.10;;;3.90;94.20;;;;;;4394958;32;20173;-63
2021/01/23 08:03:11;;;;;;;22.73;12.47;;;3.70;94.40;;;;;;4399239;32;20229;-62
2021/01/23 08:05:44;;;;;;;17.00;12.67;;;3.80;94.60;;;;;;4405800;32;20466;-65
2021/01/23 08:08:12;;;;;;;15.87;10.77;;;3.80;94.70;;;;;;4402132;32;20229;-63
2021/01/23 08:10:40;;;;;;;16.73;11.10;;;3.80;94.60;;;;;;4404930;32;20234;-66
2021/01/23 08:13:08;;;;;;;18.60;10.90;;;3.90;94.40;;;;;;4402310;32;20562;-63
2021/01/23 08:15:36;;;;;;;16.97;11.63;;;3.90;94.40;;;;;;4402665;32;20229;-64
2021/01/23 08:18:15;;;;;;;18.83;12.00;;;3.90;94.40;;;;;;4402680;32;20592;-64
2021/01/23 08:20:42;;;;;;;14.80;11.30;;;4.00;94.20;;;;;;4402602;32;20262;-63
2021/01/23 08:23:10;;;;;;;17.10;11.27;;;4.00;94.20;;;;;;4404875;32;20181;-64
2021/01/23 08:25:38;;;;;;;17.00;10.43;;;4.20;94.00;;;;;;4393694;32;20147;-65
2021/01/23 08:28:06;;;;;;;19.67;10.43;;;4.20;93.90;;;;;;4402654;32;20213;-62
2021/01/23 08:30:33;;;;;;;17.80;11.10;;;4.20;93.60;;;;;;4403416;32;20235;-64
2021/01/23 08:33:03;;;;;;;15.40;9.83;;;4.30;93.60;;;;;;4401297;32;20535;-64
2021/01/23 08:35:31;;;;;;;14.50;9.03;;;4.30;93.40;;;;;;4402991;32;20244;-64
2021/01/23 08:37:57;;;;;;;15.77;9.03;;;4.30;93.40;;;;;;4406956;32;20168;-64
2021/01/23 08:40:25;;;;;;;16.60;10.57;;;4.30;93.30;;;;;;4404212;32;20218;-64
2021/01/23 08:42:51;;;;;;;14.47;9.97;;;4.30;93.40;;;;;;4405111;32;20522;-64
2021/01/23 08:45:19;;;;;;;14.00;9.97;;;4.30;93.40;;;;;;4404279;32;20235;-66
2021/01/23 08:47:46;;;;;;;12.87;10.43;;;4.30;93.50;;;;;;4404300;32;20598;-64
2021/01/23 08:50:14;;;;;;;18.70;10.63;;;4.30;93.40;;;;;;4404741;32;20218;-64
2021/01/23 08:52:42;;;;;;;19.03;9.80;;;4.30;93.40;;;;;;4400310;32;20206;-66
2021/01/23 08:55:09;;;;;;;17.90;10.73;;;4.40;93.20;;;;;;4404212;32;20152;-64
2021/01/23 08:57:35;;;;;;;14.57;10.53;;;4.40;93.30;;;;;;4402257;32;20573;-66
2021/01/23 09:00:03;;;;;;;16.33;10.20;;;4.60;93.30;;;;;;4410707;32;21578;-66
2021/01/23 09:02:29;;;;;;;13.90;10.10;;;4.70;92.70;;;;;;4403958;32;20451;-64
2021/01/23 09:04:56;;;;;;;12.63;10.07;;;4.80;92.60;;;;;;4398230;32;20222;-65
2021/01/23 09:07:24;;;;;;;16.80;11.03;;;4.80;92.20;;;;;;4404774;32;20632;-65
2021/01/23 09:09:54;;;;;;;16.07;10.50;;;4.80;92.00;;;;;;4402511;32;20625;-64
2021/01/23 09:12:25;;;;;;;18.47;11.10;;;4.80;92.20;;;;;;4403954;32;20238;-65
2021/01/23 09:14:51;;;;;;;14.80;10.50;;;4.90;92.10;;;;;;4405170;32;20233;-66
2021/01/23 09:17:18;;;;;;;17.73;11.97;;;4.90;92.10;;;;;;4404867;32;20655;-65
2021/01/23 09:19:44;;;;;;;18.73;12.27;;;5.00;92.00;;;;;;4402477;32;20158;-65
2021/01/23 09:22:12;;;;;;;17.50;12.47;;;5.10;91.90;;;;;;4404848;32;20195;-66
2021/01/23 09:24:42;;;;;;;13.87;10.93;;;5.30;91.40;;;;;;4406494;32;20151;-64
2021/01/23 09:27:10;;;;;;;19.50;11.73;;;5.50;91.00;;;;;;4404455;32;20229;-64
2021/01/23 09:29:36;;;;;;;13.97;9.90;;;5.70;90.90;;;;;;4405085;32;20151;-64
2021/01/23 09:32:05;;;;;;;18.00;10.43;;;5.90;90.60;;;;;;4402928;32;20246;-64
2021/01/23 09:34:32;;;;;;;28.47;9.53;;;6.00;90.50;;;;;;4398851;32;20210;-66
2021/01/23 09:36:58;;;;;;;11.43;8.47;;;6.10;90.10;;;;;;4415459;32;20652;-64
2021/01/23 09:39:33;;;;;;;9.90;7.80;;;6.40;89.30;;;;;;4416700;32;20170;-63
2021/01/23 09:42:01;;;;;;;9.63;7.30;;;6.50;87.50;;;;;;4404210;32;20500;-65
2021/01/23 09:44:27;;;;;;;12.60;7.03;;;6.60;87.70;;;;;;4403886;32;20148;-65
2021/01/23 09:46:54;;;;;;;9.60;7.00;;;6.40;87.80;;;;;;4397548;32;20239;-63
2021/01/23 09:49:21;;;;;;;12.67;7.87;;;6.30;88.00;;;;;;4393868;32;20222;-63
2021/01/23 09:51:47;;;;;;;17.17;8.13;;;6.00;88.40;;;;;;4401457;32;20215;-66
2021/01/23 09:54:16;;;;;;;15.63;8.40;;;5.70;89.70;;;;;;4404204;32;20148;-65
2021/01/23 09:56:43;;;;;;;11.10;8.50;;;5.60;90.10;;;;;;4399867;32;20567;-63
2021/01/23 09:59:10;;;;;;;11.97;7.60;;;5.30;90.30;;;;;;4401502;32;20485;-64
2021/01/23 10:01:36;;;;;;;15.57;10.10;;;5.40;90.80;;;;;;4396753;32;20578;-64
2021/01/23 10:04:02;;;;;;;14.93;8.83;;;5.60;90.60;;;;;;4403708;32;20191;-66
2021/01/23 10:06:29;;;;;;;14.63;9.23;;;5.60;90.20;;;;;;4406315;32;20171;-63
2021/01/23 10:08:55;;;;;;;18.37;10.50;;;5.70;90.10;;;;;;4400817;32;20251;-63
2021/01/23 10:11:26;;;;;;;14.47;9.20;;;5.70;90.30;;;;;;4404441;32;20163;-65
2021/01/23 10:13:53;;;;;;;13.63;9.47;;;5.80;89.70;;;;;;4407513;32;20156;-64
2021/01/23 10:16:20;;;;;;;16.53;9.53;;;5.90;90.10;;;;;;4402336;32;20204;-63
2021/01/23 10:18:46;;;;;;;13.97;9.70;;;6.00;89.30;;;;;;4405393;32;20166;-65
2021/01/23 10:21:12;;;;;;;13.27;8.87;;;6.10;88.90;;;;;;4401119;32;20302;-65
2021/01/23 10:23:39;;;;;;;16.90;10.07;;;6.10;87.90;;;;;;4397606;32;20211;-64
2021/01/23 10:26:05;;;;;;;17.23;9.87;;;5.90;89.20;;;;;;4389983;32;20583;-65
2021/01/23 10:28:31;;;;;;;15.10;10.10;;;6.00;89.30;;;;;;4394988;32;20152;-63
2021/01/23 10:30:58;;;;;;;11.93;9.70;;;6.20;89.20;;;;;;4406746;32;20219;-64
2021/01/23 10:33:25;;;;;;;13.90;8.90;;;6.30;88.50;;;;;;4404586;32;20539;-64
2021/01/23 10:35:51;;;;;;;15.73;9.10;;;6.40;88.00;;;;;;4405217;32;20223;-67
2021/01/23 10:38:23;;;;;;;9.93;7.33;;;6.70;87.60;;;;;;4401342;32;20178;-65
2021/01/23 10:40:49;;;;;;;13.43;8.07;;;6.90;86.40;;;;;;4400219;32;20155;-64
2021/01/23 10:43:16;;;;;;;15.00;7.77;;;7.00;86.00;;;;;;4402719;32;20483;-66
2021/01/23 10:45:42;;;;;;;10.93;7.93;;;7.10;84.40;;;;;;4402437;32;20255;-66
2021/01/23 10:48:08;;;;;;;12.97;7.97;;;6.80;84.70;;;;;;4402768;32;20568;-65
2021/01/23 10:50:36;;;;;;;12.70;9.13;;;6.70;85.50;;;;;;4401531;32;20568;-65
2021/01/23 10:53:02;;;;;;;14.60;10.33;;;6.40;86.50;;;;;;4399893;32;20219;-65
2021/01/23 10:55:29;;;;;;;11.97;8.93;;;6.70;86.50;;;;;;4409414;32;20231;-65
2021/01/23 10:57:55;;;;;;;13.87;10.07;;;6.90;85.00;;;;;;4407933;32;20223;-65
2021/01/23 11:00:22;;;;;;;14.30;9.53;;;6.90;84.80;;;;;;4403692;32;20290;-67
2021/01/23 11:02:49;;;;;;;12.53;8.60;;;6.70;83.80;;;;;;4392518;32;20163;-66
2021/01/23 11:05:18;;;;;;;12.20;8.27;;;6.30;84.90;;;;;;4404904;32;20651;-66
2021/01/23 11:07:45;;;;;;;9.10;7.77;;;6.20;86.20;;;;;;4407234;32;20217;-64
2021/01/23 11:10:13;;;;;;;14.20;9.00;;;5.90;87.40;;;;;;4406851;32;20180;-66
2021/01/23 11:12:39;;;;;;;14.20;8.70;;;6.00;86.90;;;;;;4408152;32;20176;-64
2021/01/23 11:15:07;;;;;;;12.43;8.83;;;5.90;86.70;;;;;;4407709;32;20155;-65
2021/01/23 11:17:34;;;;;;;13.13;8.37;;;6.00;87.70;;;;;;4406729;32;20171;-65
2021/01/23 11:20:00;;;;;;;15.07;8.40;;;6.20;86.50;;;;;;4405861;32;20143;-63
2021/01/23 11:22:28;;;;;;;13.60;10.33;;;6.10;86.70;;;;;;4404181;32;20238;-63
2021/01/23 11:24:55;;;;;;;16.27;12.03;;;6.20;86.00;;;;;;4402917;32;20147;-64
2021/01/23 11:27:21;;;;;;;17.67;11.20;;;6.00;84.70;;;;;;4401748;32;20238;-63
2021/01/23 11:29:48;;;;;;;15.80;11.07;;;5.90;86.00;;;;;;4404151;32;20182;-63
2021/01/23 11:32:14;;;;;;;12.53;9.87;;;5.70;86.60;;;;;;4403685;32;20643;-65
2021/01/23 11:34:40;;;;;;;13.13;10.57;;;5.50;88.00;;;;;;4403225;32;20165;-64
2021/01/23 11:37:07;;;;;;;16.37;9.80;;;5.50;88.70;;;;;;4399562;32;20231;-64
2021/01/23 11:39:33;;;;;;;12.57;9.73;;;5.50;89.60;;;;;;4398323;32;20214;-64
2021/01/23 11:42:00;;;;;;;14.50;8.90;;;5.70;89.30;;;;;;4402134;32;20223;-63
2021/01/23 11:44:26;;;;;;;14.60;9.70;;;5.80;88.90;;;;;;4403059;32;20663;-63
2021/01/23 11:46:52;;;;;;;13.03;9.83;;;5.80;88.60;;;;;;4407050;32;20250;-63
2021/01/23 11:49:22;;;;;;;12.73;8.97;;;5.90;88.00;;;;;;4408585;32;20178;-64
2021/01/23 11:51:49;;;;;;;10.80;9.10;;;5.90;88.50;;;;;;4408546;32;20453;-63
2021/01/23 11:54:17;;;;;;;17.63;9.67;;;5.90;88.40;;;;;;4397677;32;20231;-64
2021/01/23 11:56:43;;;;;;;16.43;10.13;;;6.00;89.30;;;;;;4397512;32;20537;-65
2021/01/23 11:59:10;;;;;;;13.17;9.80;;;6.20;87.40;;;;;;4393114;32;20165;-64
2021/01/23 12:01:36;;;;;;;17.57;10.60;;;6.20;87.40;;;;;;4406179;32;20270;-63
2021/01/23 12:04:03;;;;;;;19.70;10.93;;;6.10;88.40;;;;;;4405589;32;20151;-65
2021/01/23 12:06:29;;;;;;;13.10;8.77;;;6.10;87.60;;;;;;4406461;32;20219;-64
2021/01/23 12:08:55;;;;;;;18.00;9.60;;;6.20;87.40;;;;;;4402385;32;20208;-63
2021/01/23 12:11:22;;;;;;;16.93;8.80;;;5.80;87.80;;;;;;4393474;32;20208;-65
2021/01/23 12:13:48;;;;;;;16.17;10.20;;;5.80;88.90;;;;;;4226815;32;5513156;-64
2021/01/23 12:16:15;;;;;;;11.70;9.63;;;5.70;88.90;;;;;;4396270;32;20633;-65
2021/01/23 12:18:44;;;;;;;12.80;9.27;;;5.60;89.40;;;;;;4398383;32;20265;-65
2021/01/23 12:21:11;;;;;;;16.20;9.63;;;5.70;89.70;;;;;;4399203;32;20159;-65
2021/01/23 12:23:37;;;;;;;15.10;9.67;;;5.60;89.70;;;;;;4406261;32;20140;-64
2021/01/23 12:26:04;;;;;;;13.83;8.23;;;5.60;89.90;;;;;;4406384;32;20166;-63
2021/01/23 12:28:30;;;;;;;10.87;9.17;;;5.60;89.70;;;;;;4406239;32;20215;-64
2021/01/23 12:30:56;;;;;;;11.33;7.87;;;5.70;89.70;;;;;;4407301;32;20198;-64
2021/01/23 12:33:24;;;;;;;13.53;8.60;;;5.80;89.10;;;;;;4401903;32;20210;-64
2021/01/23 12:35:50;;;;;;;12.87;8.97;;;5.80;88.20;;;;;;4399252;32;20168;-64
2021/01/23 12:38:16;;;;;;;13.53;9.30;;;5.80;88.70;;;;;;4406200;32;20620;-64
2021/01/23 12:40:42;;;;;;;12.40;8.67;;;5.80;89.20;;;;;;4405359;32;20304;-64
2021/01/23 12:43:09;;;;;;;10.30;8.37;;;5.90;89.10;;;;;;4401939;32;20222;-64